createdAt,value
2022-09-20T00:01:24.474Z,22.30
2022-09-20T00:03:54.855Z,25.17
2022-09-20T00:06:25.912Z,25.25
2022-09-20T00:08:54.306Z,24.77
2022-09-20T00:11:24.690Z,25.52
2022-09-20T00:13:56.099Z,26.40
2022-09-20T00:16:28.374Z,26.17
2022-09-20T00:18:58.292Z,28.23
2022-09-20T00:21:29.045Z,26.63
2022-09-20T00:23:58.315Z,28.35
2022-09-20T00:26:27.193Z,28.35
2022-09-20T00:29:19.177Z,26.73
2022-09-20T00:31:48.403Z,28.65
2022-09-20T00:34:34.096Z,29.17
2022-09-20T00:37:02.189Z,27.23
2022-09-20T00:39:31.482Z,29.33
2022-09-20T00:41:59.129Z,26.73
2022-09-20T00:44:48.761Z,29.90
2022-09-20T00:47:28.111Z,29.80
2022-09-20T00:50:03.948Z,29.13
2022-09-20T00:52:32.565Z,29.42
2022-09-20T00:55:01.875Z,31.55
2022-09-20T00:57:35.211Z,29.92
2022-09-20T01:00:08.115Z,30.10
2022-09-20T01:02:40.885Z,28.67
2022-09-20T01:05:11.120Z,29.65
2022-09-20T01:07:40.050Z,29.38
2022-09-20T01:10:08.216Z,31.08
2022-09-20T01:12:40.289Z,31.70
2022-09-20T01:15:10.434Z,30.33
2022-09-20T01:17:43.875Z,29.30
2022-09-20T01:20:19.604Z,31.23
2022-09-20T01:23:20.089Z,30.27
2022-09-20T01:26:12.493Z,31.52
2022-09-20T01:28:44.648Z,32.03
2022-09-20T01:31:18.426Z,31.85
2022-09-20T01:33:53.011Z,31.10
2022-09-20T01:36:26.364Z,32.00
2022-09-20T01:39:06.801Z,30.55
2022-09-20T01:41:38.665Z,30.42
2022-09-20T01:46:44.436Z,30.13
2022-09-20T01:49:24.816Z,31.58
2022-09-20T01:52:34.385Z,30.83
2022-09-20T01:55:38.173Z,32.45
2022-09-20T01:58:35.740Z,30.00
2022-09-20T02:01:31.274Z,31.63
2022-09-20T02:04:31.943Z,32.50
2022-09-20T02:07:23.948Z,30.90
2022-09-20T02:10:12.720Z,29.23
2022-09-20T02:12:54.096Z,31.77
2022-09-20T02:15:46.576Z,30.23
2022-09-20T02:20:57.820Z,29.77
2022-09-20T02:23:41.519Z,30.98
2022-09-20T02:26:24.023Z,30.73
2022-09-20T02:29:03.313Z,29.15
2022-09-20T02:31:50.678Z,29.70
2022-09-20T02:34:44.260Z,30.70
2022-09-20T02:37:32.113Z,28.88
2022-09-20T02:40:19.920Z,29.73
2022-09-20T02:42:56.152Z,29.27
2022-09-20T02:45:31.101Z,31.20
2022-09-20T02:48:04.156Z,30.98
2022-09-20T02:50:42.734Z,31.70
2022-09-20T02:53:26.606Z,31.15
2022-09-20T02:56:04.304Z,31.05
2022-09-20T02:58:42.104Z,31.60
2022-09-20T03:01:21.218Z,32.28
2022-09-20T03:04:00.750Z,31.42
2022-09-20T03:06:38.257Z,29.77
2022-09-20T03:09:17.335Z,30.65
2022-09-20T03:12:01.956Z,30.80
2022-09-20T03:14:37.548Z,33.75
2022-09-20T03:17:16.981Z,31.90
2022-09-20T03:19:56.940Z,33.10
2022-09-20T03:22:38.352Z,32.13
2022-09-20T03:25:28.867Z,30.08
2022-09-20T03:28:10.894Z,33.25
2022-09-20T03:30:54.273Z,33.85
2022-09-20T03:33:32.769Z,32.90
2022-09-20T03:36:12.946Z,34.55
2022-09-20T03:39:01.034Z,33.45
2022-09-20T03:41:58.312Z,33.85
2022-09-20T03:44:42.411Z,35.50
2022-09-20T03:47:21.364Z,33.63
2022-09-20T03:50:18.794Z,33.15
2022-09-20T03:53:06.153Z,32.78
2022-09-20T03:56:11.248Z,33.60
2022-09-20T03:58:58.272Z,31.63
2022-09-20T04:01:50.201Z,30.75
2022-09-20T04:04:26.641Z,29.27
2022-09-20T04:07:11.800Z,29.95
2022-09-20T04:09:54.104Z,29.70
2022-09-20T04:12:31.684Z,29.95
2022-09-20T04:15:11.188Z,31.00
2022-09-20T04:17:48.621Z,27.90
2022-09-20T04:20:21.149Z,31.23
2022-09-20T04:22:52.265Z,30.85
2022-09-20T04:25:24.624Z,31.02
2022-09-20T04:27:58.173Z,28.10
2022-09-20T04:30:29.508Z,30.42
2022-09-20T04:33:01.408Z,28.90
2022-09-20T04:35:59.496Z,26.88
2022-09-20T04:38:28.206Z,29.88
2022-09-20T04:41:20.552Z,26.63
2022-09-20T04:44:12.006Z,28.70
2022-09-20T04:47:13.335Z,28.45
2022-09-20T04:50:16.795Z,28.88
2022-09-20T04:53:09.085Z,28.05
2022-09-20T04:58:49.573Z,29.80
2022-09-20T05:02:03.348Z,29.90
2022-09-20T05:05:09.159Z,28.75
2022-09-20T05:08:05.980Z,31.17
2022-09-20T05:11:06.539Z,28.63
2022-09-20T05:13:47.469Z,26.85
2022-09-20T05:16:23.148Z,26.70
2022-09-20T05:19:26.878Z,28.52
2022-09-20T05:22:32.601Z,28.05
2022-09-20T05:25:35.172Z,28.45
2022-09-20T05:28:09.156Z,30.30
2022-09-20T05:30:44.716Z,28.05
2022-09-20T05:33:21.395Z,25.67
2022-09-20T05:36:03.237Z,27.80
2022-09-20T05:38:42.153Z,25.47
2022-09-20T05:41:18.903Z,26.13
2022-09-20T05:43:55.992Z,25.83
2022-09-20T05:46:35.766Z,23.95
2022-09-20T05:49:13.161Z,24.52
2022-09-20T05:52:00.937Z,23.88
2022-09-20T05:55:07.737Z,24.05
2022-09-20T05:57:56.400Z,22.48
2022-09-20T06:00:29.073Z,20.92
2022-09-20T06:03:10.374Z,22.80
2022-09-20T06:05:48.041Z,23.10
2022-09-20T06:08:43.202Z,22.00
2022-09-20T06:11:48.494Z,22.95
2022-09-20T06:14:27.526Z,22.00
2022-09-20T06:17:03.058Z,22.10
2022-09-20T06:19:40.241Z,21.90
2022-09-20T06:22:17.089Z,22.10
2022-09-20T06:24:51.096Z,24.15
2022-09-20T06:27:22.678Z,22.13
2022-09-20T06:29:55.790Z,22.08
2022-09-20T06:32:23.612Z,21.70
2022-09-20T06:34:52.860Z,21.42
2022-09-20T06:37:52.763Z,21.50
2022-09-20T06:40:50.920Z,22.45
2022-09-20T06:43:19.477Z,21.05
2022-09-20T06:45:48.054Z,21.05
2022-09-20T06:48:16.192Z,20.52
2022-09-20T06:50:45.281Z,20.55
2022-09-20T06:53:18.639Z,21.73
2022-09-20T06:55:48.685Z,22.30
2022-09-20T06:58:16.717Z,21.35
2022-09-20T07:00:44.538Z,22.05
2022-09-20T07:03:13.553Z,18.40
2022-09-20T07:05:41.836Z,18.95
2022-09-20T07:08:09.797Z,19.67
2022-09-20T07:10:38.343Z,18.25
2022-09-20T07:13:07.705Z,19.73
2022-09-20T07:15:35.593Z,18.23
2022-09-20T07:18:03.550Z,17.52
2022-09-20T07:20:31.605Z,18.35
2022-09-20T07:22:59.416Z,16.58
2022-09-20T07:25:27.528Z,17.30
2022-09-20T07:27:56.230Z,15.23
2022-09-20T07:30:25.888Z,15.60
2022-09-20T07:32:53.956Z,14.57
2022-09-20T07:35:22.325Z,14.43
2022-09-20T07:37:50.065Z,15.02
2022-09-20T07:40:20.224Z,16.10
2022-09-20T07:42:48.261Z,15.63
2022-09-20T07:45:16.050Z,12.80
2022-09-20T07:47:46.728Z,13.45
2022-09-20T07:50:14.746Z,13.18
2022-09-20T07:52:42.632Z,12.60
2022-09-20T07:55:10.823Z,13.40
2022-09-20T07:57:39.590Z,13.98
2022-09-20T08:00:10.032Z,14.40
2022-09-20T08:02:38.066Z,14.07
2022-09-20T08:05:08.067Z,14.43
2022-09-20T08:07:35.764Z,13.30
2022-09-20T08:10:03.786Z,12.70
2022-09-20T08:15:20.741Z,13.32
2022-09-20T08:17:49.293Z,13.05
2022-09-20T08:20:18.430Z,12.90
2022-09-20T08:23:00.950Z,12.68
2022-09-20T08:25:34.794Z,12.65
2022-09-20T08:28:03.518Z,12.90
2022-09-20T08:30:31.368Z,14.15
2022-09-20T08:32:59.561Z,12.38
2022-09-20T08:35:29.739Z,14.13
2022-09-20T08:39:57.167Z,13.75
2022-09-20T08:40:46.170Z,14.52
2022-09-20T08:43:14.446Z,13.35
2022-09-20T08:45:42.663Z,13.95
2022-09-20T08:48:17.294Z,12.85
2022-09-20T08:50:46.515Z,13.98
2022-09-20T08:53:20.971Z,13.98
2022-09-20T08:55:49.685Z,14.35
2022-09-20T08:58:19.155Z,12.85
2022-09-20T09:00:48.026Z,12.43
2022-09-20T09:03:17.912Z,12.93
2022-09-20T09:05:49.161Z,11.43
2022-09-20T09:08:19.744Z,11.40
2022-09-20T09:10:54.717Z,12.23
2022-09-20T09:13:27.868Z,11.52
2022-09-20T09:16:00.118Z,11.55
2022-09-20T09:18:40.106Z,11.68
2022-09-20T09:21:12.150Z,12.02
2022-09-20T09:23:42.509Z,9.82
2022-09-20T09:26:20.420Z,10.70
2022-09-20T09:28:48.602Z,11.05
2022-09-20T09:31:25.726Z,10.65
2022-09-20T09:33:53.693Z,9.43
2022-09-20T09:36:25.340Z,9.68
2022-09-20T09:39:17.555Z,9.45
2022-09-20T09:44:23.660Z,8.10
2022-09-20T09:46:53.453Z,9.30
2022-09-20T09:49:23.492Z,8.55
2022-09-20T09:52:08.057Z,10.57
2022-09-20T09:54:38.149Z,7.40
2022-09-20T09:57:35.412Z,7.57
2022-09-20T10:00:18.009Z,7.40
2022-09-20T10:03:26.553Z,8.32
2022-09-20T10:06:08.539Z,8.68
2022-09-20T10:08:46.114Z,10.77
2022-09-20T10:11:36.310Z,10.88
2022-09-20T10:14:20.324Z,12.50
2022-09-20T10:17:05.933Z,10.65
2022-09-20T10:19:47.597Z,10.65
2022-09-20T10:22:21.517Z,10.98
2022-09-20T10:25:04.287Z,11.60
2022-09-20T10:27:48.308Z,14.10
2022-09-20T10:30:20.193Z,13.65
2022-09-20T10:33:00.419Z,15.15
2022-09-20T10:35:36.975Z,15.23
2022-09-20T10:38:26.198Z,15.63
2022-09-20T10:41:39.025Z,17.00
2022-09-20T10:44:13.802Z,19.90
2022-09-20T10:46:52.618Z,18.75
2022-09-20T10:49:29.041Z,19.58
2022-09-20T10:52:23.813Z,18.88
2022-09-20T10:55:18.734Z,19.02
2022-09-20T10:58:27.111Z,14.85
2022-09-20T11:01:02.280Z,15.88
2022-09-20T11:03:47.632Z,14.43
2022-09-20T11:06:21.250Z,14.02
2022-09-20T11:08:56.467Z,12.63
2022-09-20T11:11:31.051Z,11.02
2022-09-20T11:14:05.976Z,8.88
2022-09-20T11:16:40.694Z,9.65
2022-09-20T11:19:19.945Z,8.93
2022-09-20T11:21:50.728Z,6.90
2022-09-20T11:24:31.695Z,6.40
2022-09-20T11:27:05.349Z,7.13
2022-09-20T11:29:38.950Z,7.22
2022-09-20T11:32:14.004Z,7.40
2022-09-20T11:34:50.992Z,8.05
2022-09-20T11:37:20.372Z,5.70
2022-09-20T11:39:51.619Z,7.13
2022-09-20T11:42:23.083Z,7.05
2022-09-20T11:44:52.957Z,6.13
2022-09-20T11:47:50.064Z,6.78
2022-09-20T11:50:49.009Z,6.65
2022-09-20T11:53:32.136Z,7.13
2022-09-20T11:56:08.001Z,6.78
2022-09-20T11:58:48.200Z,5.93
2022-09-20T12:01:28.644Z,6.25
2022-09-20T12:04:20.693Z,6.05
2022-09-20T12:06:48.754Z,6.45
2022-09-20T12:09:26.746Z,4.75
2022-09-20T12:11:55.928Z,5.53
2022-09-20T12:14:26.037Z,5.40
2022-09-20T12:16:56.942Z,4.70
2022-09-20T12:19:39.407Z,4.57
2022-09-20T12:22:28.030Z,5.50
2022-09-20T12:25:35.521Z,4.93
2022-09-20T12:28:03.467Z,4.63
2022-09-20T12:30:33.881Z,3.85
2022-09-20T12:33:04.040Z,3.40
2022-09-20T12:36:16.485Z,2.70
2022-09-20T12:38:50.427Z,1.80
2022-09-20T12:41:28.369Z,2.13
2022-09-20T12:44:21.952Z,2.40
2022-09-20T12:46:56.265Z,2.78
2022-09-20T12:49:50.451Z,2.78
2022-09-20T12:52:41.768Z,3.67
2022-09-20T12:55:12.092Z,3.70
2022-09-20T12:57:40.853Z,3.88
2022-09-20T13:00:32.036Z,2.90
2022-09-20T13:03:01.861Z,2.50
2022-09-20T13:05:40.638Z,2.10
2022-09-20T13:08:16.993Z,2.30
2022-09-20T13:10:50.042Z,1.63
2022-09-20T13:13:30.042Z,1.30
2022-09-20T13:15:59.142Z,2.47
2022-09-20T13:18:29.414Z,1.90
2022-09-20T13:21:06.530Z,1.52
2022-09-20T13:23:47.173Z,4.32
2022-09-20T13:26:16.836Z,2.58
2022-09-20T13:28:51.462Z,2.58
2022-09-20T13:31:27.911Z,3.17
2022-09-20T13:33:56.625Z,4.35
2022-09-20T13:36:31.753Z,4.75
2022-09-20T13:39:00.118Z,4.03
2022-09-20T13:41:32.603Z,3.67
2022-09-20T13:44:01.313Z,3.20
2022-09-20T13:46:31.837Z,3.90
2022-09-20T13:49:13.700Z,2.97
2022-09-20T13:51:43.021Z,2.80
2022-09-20T13:54:28.540Z,2.88
2022-09-20T13:56:59.170Z,2.30
2022-09-20T13:59:34.101Z,2.35
2022-09-20T14:02:04.239Z,2.10
2022-09-20T14:04:32.593Z,7.57
2022-09-20T14:07:02.956Z,2.55
2022-09-20T14:09:34.892Z,2.40
2022-09-20T14:12:05.588Z,2.50
2022-09-20T14:14:35.718Z,2.88
2022-09-20T14:17:07.364Z,2.47
2022-09-20T14:19:41.869Z,1.95
2022-09-20T14:22:18.564Z,2.22
2022-09-20T14:24:59.444Z,2.35
2022-09-20T14:27:27.427Z,2.20
2022-09-20T14:29:56.257Z,2.78
2022-09-20T14:32:35.244Z,2.53
2022-09-20T14:35:07.467Z,2.47
2022-09-20T14:37:44.661Z,2.53
2022-09-20T14:40:21.412Z,1.80
2022-09-20T14:42:52.619Z,2.25
2022-09-20T14:45:27.042Z,2.72
2022-09-20T14:48:06.722Z,2.60
2022-09-20T14:50:40.681Z,2.53
2022-09-20T14:53:26.624Z,2.05
2022-09-20T14:56:10.308Z,2.08
2022-09-20T14:59:07.590Z,2.00
2022-09-20T15:01:38.945Z,2.10
2022-09-20T15:04:09.744Z,2.13
2022-09-20T15:06:40.023Z,2.10
2022-09-20T15:09:12.963Z,2.20
2022-09-20T15:11:41.674Z,2.03
2022-09-20T15:14:09.538Z,2.60
2022-09-20T15:16:37.511Z,2.20
2022-09-20T15:19:07.967Z,2.22
2022-09-20T15:21:36.274Z,2.38
2022-09-20T15:24:03.980Z,1.77
2022-09-20T15:26:34.119Z,1.95
2022-09-20T15:29:01.821Z,1.98
2022-09-20T15:31:29.679Z,1.77
2022-09-20T15:33:57.908Z,1.50
2022-09-20T15:36:31.718Z,1.65
2022-09-20T15:39:00.280Z,2.20
2022-09-20T15:41:31.246Z,1.67
2022-09-20T15:44:01.512Z,1.80
2022-09-20T15:46:29.789Z,2.03
2022-09-20T15:49:00.534Z,1.58
2022-09-20T15:51:30.356Z,2.08
2022-09-20T15:54:00.109Z,2.17
2022-09-20T15:56:30.452Z,2.13
2022-09-20T15:59:01.952Z,3.20
2022-09-20T16:01:32.937Z,2.72
2022-09-20T16:04:05.387Z,2.90
2022-09-20T16:06:34.041Z,2.42
2022-09-20T16:09:01.792Z,2.40
2022-09-20T16:11:29.858Z,3.08
2022-09-20T16:14:01.079Z,3.10
2022-09-20T16:16:35.026Z,3.25
2022-09-20T16:19:20.583Z,3.08
2022-09-20T16:21:55.035Z,3.65
2022-09-20T16:24:26.929Z,4.00
2022-09-20T16:26:55.187Z,4.60
2022-09-20T16:29:25.653Z,5.30
2022-09-20T16:31:55.302Z,6.03
2022-09-20T16:34:30.539Z,5.90
2022-09-20T16:37:01.748Z,5.43
2022-09-20T16:39:31.405Z,6.07
2022-09-20T16:42:05.018Z,5.70
2022-09-20T16:44:36.093Z,5.13
2022-09-20T16:47:07.914Z,5.85
2022-09-20T16:49:36.392Z,5.88
2022-09-20T16:52:05.565Z,5.10
2022-09-20T16:54:34.082Z,4.70
2022-09-20T16:57:02.109Z,5.00
2022-09-20T16:59:29.872Z,4.63
2022-09-20T17:01:59.275Z,5.07
2022-09-20T17:04:27.252Z,5.13
2022-09-20T17:06:55.606Z,4.95
2022-09-20T17:09:23.725Z,5.55
2022-09-20T17:11:51.931Z,7.72
2022-09-20T17:14:21.853Z,8.65
2022-09-20T17:16:50.321Z,8.75
2022-09-20T17:19:21.125Z,9.02
2022-09-20T17:21:51.676Z,8.88
2022-09-20T17:24:21.221Z,10.45
2022-09-20T17:26:50.662Z,9.50
2022-09-20T17:29:19.935Z,13.52
2022-09-20T17:31:54.585Z,10.45
2022-09-20T17:34:25.626Z,9.80
2022-09-20T17:36:54.885Z,9.48
2022-09-20T17:39:22.605Z,9.73
2022-09-20T17:41:51.589Z,9.68
2022-09-20T17:44:20.056Z,9.15
2022-09-20T17:46:50.564Z,8.55
2022-09-20T17:49:20.311Z,9.30
2022-09-20T17:51:51.150Z,9.82
2022-09-20T17:54:20.154Z,10.18
2022-09-20T17:56:50.242Z,10.45
2022-09-20T17:59:20.651Z,11.00
2022-09-20T18:01:50.581Z,11.82
2022-09-20T18:04:20.780Z,10.38
2022-09-20T18:06:52.165Z,11.48
2022-09-20T18:09:21.601Z,11.95
2022-09-20T18:11:51.106Z,9.32
2022-09-20T18:14:21.003Z,10.25
2022-09-20T18:16:48.800Z,8.75
2022-09-20T18:19:16.867Z,8.65
2022-09-20T18:21:44.854Z,8.15
2022-09-20T18:24:14.061Z,8.70
2022-09-20T18:26:42.365Z,8.90
2022-09-20T18:29:12.178Z,11.18
2022-09-20T18:31:43.162Z,10.52
2022-09-20T18:34:13.476Z,10.10
2022-09-20T18:36:41.233Z,8.98
2022-09-20T18:39:09.331Z,9.48
2022-09-20T18:41:39.872Z,13.45
2022-09-20T18:44:08.593Z,9.98
2022-09-20T18:46:38.171Z,11.63
2022-09-20T18:49:09.234Z,10.85
2022-09-20T18:51:40.190Z,11.43
2022-09-20T18:54:10.069Z,10.20
2022-09-20T18:56:41.317Z,10.88
2022-09-20T18:59:15.917Z,10.82
2022-09-20T19:01:59.454Z,11.85
2022-09-20T19:04:47.073Z,11.57
2022-09-20T19:07:21.488Z,11.75
2022-09-20T19:09:57.824Z,12.18
2022-09-20T19:12:36.757Z,12.55
2022-09-20T19:15:19.873Z,12.85
2022-09-20T19:18:03.123Z,12.60
2022-09-20T19:20:36.229Z,14.18
2022-09-20T19:23:14.909Z,14.00
2022-09-20T19:25:46.405Z,14.38
2022-09-20T19:28:16.926Z,13.73
2022-09-20T19:30:48.100Z,14.73
2022-09-20T19:33:18.372Z,14.45
2022-09-20T19:35:50.524Z,14.45
2022-09-20T19:38:35.235Z,15.15
2022-09-20T19:41:13.990Z,15.88
2022-09-20T19:44:05.237Z,14.82
2022-09-20T19:46:46.836Z,17.48
2022-09-20T19:49:16.906Z,16.67
2022-09-20T19:51:45.748Z,15.57
2022-09-20T19:54:15.823Z,16.33
2022-09-20T19:56:51.097Z,16.73
2022-09-20T19:59:21.318Z,19.08
2022-09-20T20:01:49.794Z,20.50
2022-09-20T20:04:18.299Z,18.80
2022-09-20T20:06:55.704Z,18.58
2022-09-20T20:09:32.133Z,18.77
2022-09-20T20:12:06.049Z,18.92
2022-09-20T20:14:45.714Z,20.20
2022-09-20T20:17:26.222Z,19.38
2022-09-20T20:20:05.337Z,17.95
2022-09-20T20:22:47.179Z,17.15
2022-09-20T20:25:26.686Z,17.17
2022-09-20T20:27:54.833Z,17.38
2022-09-20T20:30:24.289Z,20.30
2022-09-20T20:32:57.901Z,17.33
2022-09-20T20:35:26.692Z,18.83
2022-09-20T20:37:54.510Z,18.20
2022-09-20T20:40:22.477Z,18.42
2022-09-20T20:43:02.153Z,19.58
2022-09-20T20:45:31.475Z,18.77
2022-09-20T20:48:00.019Z,19.65
2022-09-20T20:50:29.387Z,18.23
2022-09-20T20:52:57.540Z,19.13
2022-09-20T20:55:26.071Z,19.02
2022-09-20T20:57:57.744Z,20.45
2022-09-20T21:00:27.429Z,20.13
2022-09-20T21:02:59.877Z,20.05
2022-09-20T21:05:28.549Z,20.20
2022-09-20T21:07:57.893Z,19.20
2022-09-20T21:10:25.970Z,19.23
2022-09-20T21:12:55.442Z,19.83
2022-09-20T21:15:23.505Z,21.13
2022-09-20T21:17:52.864Z,20.88
2022-09-20T21:20:22.443Z,20.25
2022-09-20T21:22:50.673Z,20.90
2022-09-20T21:25:18.824Z,21.25
2022-09-20T21:27:46.540Z,19.95
2022-09-20T21:30:15.196Z,21.17
2022-09-20T21:32:43.135Z,20.77
2022-09-20T21:35:11.414Z,20.63
2022-09-20T21:37:41.195Z,21.02
2022-09-20T21:40:10.489Z,20.33
2022-09-20T21:42:38.196Z,22.45
2022-09-20T21:45:11.002Z,21.05
2022-09-20T21:47:38.793Z,21.58
2022-09-20T21:50:07.473Z,22.10
2022-09-20T21:52:35.587Z,22.58
2022-09-20T21:55:05.706Z,21.77
2022-09-20T21:57:33.539Z,22.15
2022-09-20T22:00:02.005Z,22.45
2022-09-20T22:02:30.602Z,22.13
2022-09-20T22:04:58.408Z,24.40
2022-09-20T22:07:26.355Z,24.48
2022-09-20T22:09:54.230Z,24.20
2022-09-20T22:12:24.171Z,24.05
2022-09-20T22:14:52.162Z,24.20
2022-09-20T22:17:20.069Z,24.85
2022-09-20T22:19:47.784Z,26.38
2022-09-20T22:22:15.929Z,24.98
2022-09-20T22:24:43.710Z,24.35
2022-09-20T22:27:11.452Z,26.05
2022-09-20T22:29:40.903Z,24.17
2022-09-20T22:32:08.932Z,21.65
2022-09-20T22:34:36.786Z,23.27
2022-09-20T22:37:04.818Z,23.85
2022-09-20T22:39:32.939Z,23.67
2022-09-20T22:42:00.703Z,24.52
2022-09-20T22:44:28.885Z,23.30
2022-09-20T22:46:58.195Z,24.38
2022-09-20T22:49:26.015Z,23.88
2022-09-20T22:51:53.904Z,22.20
2022-09-20T22:54:21.934Z,22.17
2022-09-20T22:56:49.673Z,23.13
2022-09-20T22:59:17.557Z,20.23
2022-09-20T23:01:47.120Z,22.80
2022-09-20T23:04:18.618Z,22.13
2022-09-20T23:06:49.140Z,20.58
2022-09-20T23:09:18.872Z,20.73
2022-09-20T23:11:47.512Z,20.38
2022-09-20T23:14:17.005Z,20.52
2022-09-20T23:16:45.618Z,19.58
2022-09-20T23:19:14.320Z,20.90
2022-09-20T23:21:44.421Z,19.45
2022-09-20T23:24:15.096Z,17.58
2022-09-20T23:26:44.305Z,17.63
2022-09-20T23:29:14.086Z,17.65
2022-09-20T23:31:46.165Z,17.55
2022-09-20T23:34:16.659Z,17.02
2022-09-20T23:36:46.567Z,17.05
2022-09-20T23:39:14.833Z,16.88
2022-09-20T23:41:48.341Z,16.50
2022-09-20T23:44:18.809Z,16.30
2022-09-20T23:46:46.840Z,16.02
2022-09-20T23:49:14.580Z,17.60
2022-09-20T23:51:42.297Z,16.60
2022-09-20T23:54:11.708Z,17.70
2022-09-20T23:56:40.135Z,15.50
2022-09-20T23:59:07.854Z,17.27
